Time;durP1;ratioP1;P1;durP2;ratioP2;P2;SDS_P1;SDS_P2;PMS_P1;PMS_P2;Temp;Humidity;BMP_temperature;BMP_pressure;BME280_temperature;BME280_humidity;BME280_pressure;Samples;Min_cycle;Max_cycle;Signal;HPM_P1;HPM_P2
2022/07/26 00:00:41;;;;;;;7.00;2.60;;;22.20;1.00;;;;;;5041601;28;20839;-78
2022/07/26 00:03:06;;;;;;;7.10;2.80;;;22.10;1.00;;;;;;5044498;28;20428;-78
2022/07/26 00:05:36;;;;;;;5.30;2.70;;;22.00;1.00;;;;;;5053900;28;20429;-78
2022/07/26 00:08:11;;;;;;;7.80;2.10;;;21.90;1.00;;;;;;5043531;28;20730;-78
2022/07/26 00:10:45;;;;;;;6.97;2.70;;;21.80;1.00;;;;;;5053504;28;20813;-78
2022/07/26 00:13:46;;;;;;;15.53;2.63;;;21.70;1.00;;;;;;5041653;28;20412;-79
2022/07/26 00:16:22;;;;;;;8.47;2.93;;;21.60;1.00;;;;;;5047113;28;20528;-78
2022/07/26 00:18:48;;;;;;;9.40;2.20;;;21.50;1.00;;;;;;5054944;28;20499;-77
2022/07/26 00:21:40;;;;;;;4.70;2.80;;;21.40;1.00;;;;;;5052979;28;20519;-76
2022/07/26 00:24:24;;;;;;;10.70;3.10;;;21.20;1.00;;;;;;5044152;28;20193;-76
2022/07/26 00:27:05;;;;;;;12.93;3.20;;;21.10;1.00;;;;;;5049513;28;20415;-76
2022/07/26 00:29:31;;;;;;;6.77;3.07;;;21.00;1.00;;;;;;5046319;28;20427;-76
2022/07/26 00:32:16;;;;;;;12.60;2.97;;;20.90;1.00;;;;;;5054182;28;20397;-78
2022/07/26 00:34:42;;;;;;;2.80;2.37;;;20.90;1.00;;;;;;5055138;28;20514;-76
2022/07/26 00:37:07;;;;;;;3.07;2.70;;;20.80;1.00;;;;;;5055169;28;20469;-77
2022/07/26 00:39:34;;;;;;;5.03;2.53;;;20.70;1.00;;;;;;5054571;28;20235;-77
2022/07/26 00:42:10;;;;;;;7.67;3.17;;;20.70;1.00;;;;;;5055255;28;20161;-77
2022/07/26 00:44:41;;;;;;;6.30;3.30;;;20.60;1.00;;;;;;5054525;28;20501;-77
2022/07/26 00:47:11;;;;;;;16.83;3.40;;;20.60;1.00;;;;;;5054954;28;20474;-78
2022/07/26 00:49:46;;;;;;;10.40;3.00;;;20.60;1.00;;;;;;5054833;28;20433;-76
2022/07/26 00:52:16;;;;;;;4.67;3.00;;;20.60;1.00;;;;;;5054393;28;20464;-77
2022/07/26 00:54:47;;;;;;;9.67;2.90;;;20.60;1.00;;;;;;5045726;28;20527;-76
2022/07/26 00:57:18;;;;;;;8.17;2.67;;;20.60;1.00;;;;;;5050770;28;20923;-77
2022/07/26 00:59:52;;;;;;;4.77;2.80;;;20.60;1.00;;;;;;5043118;28;20828;-76
2022/07/26 01:02:34;;;;;;;4.93;2.57;;;20.60;1.00;;;;;;5034765;28;20450;-78
2022/07/26 01:05:10;;;;;;;5.37;2.80;;;20.60;1.00;;;;;;5050621;28;20424;-78
2022/07/26 01:07:41;;;;;;;7.60;3.00;;;20.60;1.00;;;;;;5053949;28;20469;-79
2022/07/26 01:10:11;;;;;;;5.80;2.70;;;20.60;1.00;;;;;;5054015;28;20404;-79
2022/07/26 01:12:52;;;;;;;5.40;2.70;;;20.60;1.00;;;;;;5044554;28;20470;-79
2022/07/26 01:15:46;;;;;;;6.90;3.30;;;20.60;1.00;;;;;;5051364;28;20415;-79
2022/07/26 01:18:13;;;;;;;6.77;3.00;;;20.70;1.00;;;;;;5038741;28;20419;-79
2022/07/26 01:20:39;;;;;;;11.30;2.90;;;20.60;1.00;;;;;;5039661;28;20428;-79
2022/07/26 01:23:07;;;;;;;6.00;2.70;;;20.60;1.00;;;;;;5042254;28;20423;-79
2022/07/26 01:25:40;;;;;;;12.63;2.87;;;20.60;1.00;;;;;;5053490;28;20442;-79
2022/07/26 01:28:17;;;;;;;6.43;2.57;;;20.60;1.00;;;;;;5042849;28;20949;-79
2022/07/26 01:30:52;;;;;;;5.27;2.30;;;20.50;1.00;;;;;;5034074;28;20761;-79
2022/07/26 01:33:18;;;;;;;6.97;3.13;;;20.50;1.00;;;;;;5034237;28;20383;-76
2022/07/26 01:35:46;;;;;;;10.40;3.13;;;20.50;1.00;;;;;;5051757;28;20437;-76
2022/07/26 01:38:16;;;;;;;4.17;2.90;;;20.50;1.00;;;;;;5053471;28;20733;-76
2022/07/26 01:40:42;;;;;;;8.00;3.00;;;20.40;1.00;;;;;;5040847;28;20407;-77
2022/07/26 01:43:10;;;;;;;5.33;2.73;;;20.40;1.00;;;;;;5052544;28;20424;-77
2022/07/26 01:45:36;;;;;;;8.30;2.93;;;20.40;1.00;;;;;;5052054;28;20259;-77
2022/07/26 01:48:02;;;;;;;7.20;3.20;;;20.30;1.00;;;;;;5046286;28;20437;-78
2022/07/26 01:50:28;;;;;;;9.10;3.20;;;20.30;1.00;;;;;;5034084;28;20167;-79
2022/07/26 01:53:16;;;;;;;7.10;3.17;;;20.30;1.00;;;;;;5053387;28;20179;-79
2022/07/26 01:56:13;;;;;;;8.50;2.50;;;20.30;1.00;;;;;;5053244;28;20809;-79
2022/07/26 01:58:52;;;;;;;5.87;2.77;;;20.30;1.00;;;;;;5050873;28;20784;-79
2022/07/26 02:02:10;;;;;;;3.90;2.70;;;20.30;1.00;;;;;;5053434;28;20481;-79
2022/07/26 02:07:20;;;;;;;6.80;2.70;;;20.30;1.00;;;;;;5053774;28;20508;-76
2022/07/26 02:09:52;;;;;;;4.53;2.43;;;20.30;1.00;;;;;;5053375;28;20431;-77
2022/07/26 02:12:18;;;;;;;5.97;2.63;;;20.30;1.00;;;;;;5040756;28;20282;-77
2022/07/26 02:14:44;;;;;;;10.43;3.30;;;20.30;1.00;;;;;;5052535;28;22239;-77
2022/07/26 02:17:10;;;;;;;6.47;2.87;;;20.30;1.00;;;;;;5033303;28;20415;-77
2022/07/26 02:19:40;;;;;;;4.27;2.23;;;20.30;1.00;;;;;;5034465;28;20188;-77
2022/07/26 02:22:06;;;;;;;4.60;2.33;;;20.40;1.00;;;;;;5046483;28;20187;-77
2022/07/26 02:24:34;;;;;;;7.10;2.80;;;20.40;1.00;;;;;;5045488;28;20442;-77
2022/07/26 02:27:02;;;;;;;5.97;2.60;;;20.40;1.00;;;;;;5053185;28;20422;-77
2022/07/26 02:29:34;;;;;;;7.97;2.80;;;20.40;1.00;;;;;;5053419;28;20507;-76
2022/07/26 02:32:05;;;;;;;8.20;2.80;;;20.40;1.00;;;;;;5045144;28;20434;-77
2022/07/26 02:34:40;;;;;;;15.23;2.40;;;20.30;1.00;;;;;;5049714;28;20446;-76
2022/07/26 02:37:06;;;;;;;4.67;2.70;;;20.30;1.00;;;;;;5053405;28;20974;-76
2022/07/26 02:39:34;;;;;;;3.30;2.40;;;20.30;1.00;;;;;;5035965;28;20411;-77
2022/07/26 02:42:02;;;;;;;17.10;3.20;;;20.30;1.00;;;;;;5047310;28;20176;-77
2022/07/26 02:44:28;;;;;;;6.43;2.80;;;20.30;1.00;;;;;;5052638;28;20922;-77
2022/07/26 02:47:05;;;;;;;8.93;2.43;;;20.30;1.00;;;;;;5057098;28;20426;-76
2022/07/26 02:49:46;;;;;;;3.67;2.30;;;20.30;1.00;;;;;;5043824;28;20560;-77
2022/07/26 02:52:16;;;;;;;4.77;2.90;;;20.30;1.00;;;;;;5043597;28;20765;-76
2022/07/26 02:54:42;;;;;;;2.67;2.10;;;20.20;1.00;;;;;;5056791;28;20854;-76
2022/07/26 02:57:08;;;;;;;5.37;2.00;;;20.20;1.00;;;;;;5055299;28;20931;-77
2022/07/26 02:59:35;;;;;;;11.03;2.67;;;20.10;1.00;;;;;;5036954;28;20403;-76
2022/07/26 03:02:00;;;;;;;4.30;2.63;;;20.10;1.00;;;;;;5051868;28;20407;-77
2022/07/26 03:04:26;;;;;;;4.17;2.60;;;20.00;1.00;;;;;;5047489;28;20416;-79
2022/07/26 03:06:52;;;;;;;4.80;2.63;;;20.00;1.00;;;;;;5052440;28;20515;-79
2022/07/26 03:09:52;;;;;;;4.33;2.70;;;19.90;1.00;;;;;;5036237;28;20239;-79
2022/07/26 03:12:29;;;;;;;17.73;3.40;;;19.80;1.00;;;;;;5049597;28;20983;-79
2022/07/26 03:15:11;;;;;;;8.87;2.93;;;19.70;1.00;;;;;;5050613;28;20802;-79
2022/07/26 03:17:52;;;;;;;4.37;2.60;;;19.70;1.00;;;;;;5046425;28;20510;-79
2022/07/26 03:20:18;;;;;;;3.50;2.70;;;19.70;1.00;;;;;;5038627;28;20433;-77
2022/07/26 03:22:46;;;;;;;15.47;3.40;;;19.60;1.00;;;;;;5045483;28;20473;-77
2022/07/26 03:25:34;;;;;;;8.53;3.00;;;19.60;1.00;;;;;;5045119;28;20188;-77
2022/07/26 03:28:00;;;;;;;5.90;2.60;;;19.50;1.00;;;;;;5054919;28;20553;-77
2022/07/26 03:30:26;;;;;;;6.70;3.53;;;19.50;1.00;;;;;;5047203;28;20513;-77
2022/07/26 03:32:58;;;;;;;8.57;3.13;;;19.50;1.00;;;;;;5056011;28;20182;-76
2022/07/26 03:35:28;;;;;;;6.47;3.00;;;19.50;1.00;;;;;;5051116;28;20190;-77
2022/07/26 03:38:16;;;;;;;4.43;2.87;;;19.40;1.00;;;;;;5040446;28;20985;-77
2022/07/26 03:40:46;;;;;;;4.90;2.60;;;19.40;1.00;;;;;;5049476;28;20396;-77
2022/07/26 03:43:12;;;;;;;12.27;3.40;;;19.40;1.00;;;;;;5036100;28;20422;-77
2022/07/26 03:45:41;;;;;;;5.33;2.40;;;19.40;1.00;;;;;;5049628;28;20425;-77
2022/07/26 03:48:07;;;;;;;3.90;2.73;;;19.30;1.00;;;;;;5055663;28;20207;-77
2022/07/26 03:50:34;;;;;;;5.17;2.60;;;19.30;1.00;;;;;;5056121;28;20432;-80
2022/07/26 03:53:00;;;;;;;8.03;2.60;;;19.30;1.00;;;;;;5054508;28;20674;-79
2022/07/26 03:58:34;;;;;;;7.43;3.33;;;19.20;1.00;;;;;;5046778;28;20274;-79
2022/07/26 04:01:46;;;;;;;7.13;2.90;;;19.10;1.00;;;;;;5055168;28;20474;-79
2022/07/26 04:04:17;;;;;;;8.63;3.40;;;19.00;1.00;;;;;;5042663;28;20432;-78
2022/07/26 04:06:53;;;;;;;2.53;2.20;;;19.00;1.00;;;;;;5050656;28;20520;-77
2022/07/26 04:09:22;;;;;;;13.87;3.40;;;19.00;1.00;;;;;;5055222;28;20540;-77
2022/07/26 04:11:52;;;;;;;9.30;2.97;;;18.90;1.00;;;;;;5052996;28;20386;-77
2022/07/26 04:14:22;;;;;;;6.70;2.83;;;18.80;1.00;;;;;;5035515;28;20406;-77
2022/07/26 04:16:52;;;;;;;6.33;2.60;;;18.70;1.00;;;;;;5051652;28;20429;-77
2022/07/26 04:19:28;;;;;;;5.50;2.73;;;18.70;1.00;;;;;;5044717;28;20449;-79
2022/07/26 04:21:58;;;;;;;5.50;2.50;;;18.70;1.00;;;;;;5049978;28;20900;-80
2022/07/26 04:24:28;;;;;;;3.73;2.83;;;18.60;1.00;;;;;;5048012;28;20427;-79
2022/07/26 04:26:58;;;;;;;6.60;2.23;;;18.60;1.00;;;;;;5053469;28;20799;-79
2022/07/26 04:29:52;;;;;;;5.53;3.20;;;18.60;1.00;;;;;;5048863;28;20995;-79
2022/07/26 04:33:04;;;;;;;7.87;2.70;;;18.60;1.00;;;;;;5044010;28;20461;-79
2022/07/26 04:35:52;;;;;;;14.60;2.60;;;18.60;1.00;;;;;;5035589;28;20434;-80
2022/07/26 04:38:46;;;;;;;7.50;2.20;;;18.60;1.00;;;;;;5039344;28;20426;-80
2022/07/26 04:41:28;;;;;;;8.67;1.93;;;18.60;1.00;;;;;;5039162;28;20912;-80
2022/07/26 04:43:58;;;;;;;2.80;1.80;;;18.60;1.00;;;;;;5043340;28;20433;-80
2022/07/26 04:46:46;;;;;;;3.87;1.97;;;18.60;1.00;;;;;;5041958;28;20900;-80
2022/07/26 04:49:12;;;;;;;6.53;2.40;;;18.70;1.00;;;;;;5041270;28;20513;-80
2022/07/26 04:51:46;;;;;;;3.40;1.90;;;18.70;1.00;;;;;;5044218;28;20414;-80
2022/07/26 04:54:28;;;;;;;10.37;2.27;;;18.80;1.00;;;;;;5051714;28;20840;-80
2022/07/26 04:56:54;;;;;;;4.23;2.27;;;18.80;1.00;;;;;;5040938;28;20429;-80
2022/07/26 05:03:10;;;;;;;6.33;2.00;;;18.80;1.00;;;;;;5043164;28;20169;-80
2022/07/26 05:05:40;;;;;;;12.40;2.30;;;19.00;1.00;;;;;;5047839;28;20442;-80
2022/07/26 05:08:16;;;;;;;6.77;2.10;;;18.90;1.00;;;;;;5034246;28;20964;-80
2022/07/26 05:10:52;;;;;;;7.40;2.17;;;19.00;1.00;;;;;;5040377;28;20989;-80
2022/07/26 05:13:35;;;;;;;3.60;1.90;;;19.10;1.00;;;;;;5053622;28;20896;-80
2022/07/26 05:16:00;;;;;;;6.57;1.80;;;19.10;1.00;;;;;;5052942;28;20405;-80
2022/07/26 05:18:40;;;;;;;3.73;1.77;;;19.20;1.00;;;;;;5049834;28;20951;-80
2022/07/26 05:21:11;;;;;;;7.37;1.80;;;19.30;1.00;;;;;;5044536;28;20653;-79
2022/07/26 05:23:40;;;;;;;4.90;1.90;;;19.40;1.00;;;;;;5041010;28;20460;-80
2022/07/26 05:26:11;;;;;;;5.87;2.07;;;19.40;1.00;;;;;;5051968;28;20416;-79
2022/07/26 05:29:10;;;;;;;3.20;2.00;;;19.50;1.00;;;;;;5045056;28;20474;-79
2022/07/26 05:31:40;;;;;;;4.70;1.80;;;19.50;1.00;;;;;;5040351;28;20410;-79
2022/07/26 05:34:09;;;;;;;8.13;1.93;;;19.50;1.00;;;;;;5053237;28;20409;-79
2022/07/26 05:36:34;;;;;;;5.60;1.50;;;19.70;1.00;;;;;;5053608;28;20788;-79
2022/07/26 05:39:04;;;;;;;3.27;1.87;;;19.70;1.00;;;;;;5049063;28;20469;-79
2022/07/26 05:41:30;;;;;;;7.10;1.87;;;19.80;1.00;;;;;;5045509;28;20702;-79
2022/07/26 05:43:58;;;;;;;3.40;1.70;;;20.00;1.00;;;;;;5053178;28;20411;-79
2022/07/26 05:46:38;;;;;;;5.63;1.30;;;20.10;1.00;;;;;;5053120;28;20647;-79
2022/07/26 05:49:05;;;;;;;7.80;1.90;;;20.20;1.00;;;;;;5050176;28;20453;-87
2022/07/26 05:51:58;;;;;;;4.10;1.37;;;20.40;1.00;;;;;;5047046;28;20410;-82
2022/07/26 05:54:24;;;;;;;3.83;1.57;;;20.60;1.00;;;;;;5051753;28;20418;-82
2022/07/26 05:56:52;;;;;;;2.60;1.53;;;20.80;1.00;;;;;;5040411;28;20412;-83
2022/07/26 06:03:25;;;;;;;3.53;1.23;;;21.10;1.00;;;;;;5038648;28;20465;-80
2022/07/26 06:06:05;;;;;;;12.83;2.50;;;21.20;1.00;;;;;;5053380;28;20422;-80
2022/07/26 06:08:30;;;;;;;4.43;1.60;;;21.20;1.00;;;;;;5045022;28;20558;-79
2022/07/26 06:11:05;;;;;;;5.57;1.23;;;21.10;1.00;;;;;;5053232;28;20503;-80
2022/07/26 06:13:34;;;;;;;6.73;1.80;;;21.10;1.00;;;;;;5039914;28;20178;-79
2022/07/26 06:16:05;;;;;;;1.73;1.27;;;21.00;1.00;;;;;;5044029;28;20910;-79
2022/07/26 06:18:35;;;;;;;5.10;1.80;;;21.00;1.00;;;;;;5054785;28;20500;-79
2022/07/26 06:21:05;;;;;;;4.60;1.30;;;21.10;1.00;;;;;;5052433;28;20432;-80
2022/07/26 06:23:34;;;;;;;5.93;1.33;;;21.10;1.00;;;;;;5043807;28;20424;-80
2022/07/26 06:26:28;;;;;;;4.30;1.10;;;21.20;1.00;;;;;;5051334;28;20415;-79
2022/07/26 06:29:22;;;;;;;6.10;1.93;;;21.20;1.00;;;;;;5048352;28;20827;-80
2022/07/26 06:31:59;;;;;;;10.03;1.70;;;21.20;1.00;;;;;;5044868;28;20511;-80
2022/07/26 06:34:34;;;;;;;2.80;1.67;;;21.20;1.00;;;;;;5053948;28;20424;-81
2022/07/26 06:37:00;;;;;;;4.07;1.33;;;21.10;1.00;;;;;;5054567;28;20837;-80
2022/07/26 06:39:35;;;;;;;4.27;1.43;;;21.20;1.00;;;;;;5053476;28;20436;-81
2022/07/26 06:42:00;;;;;;;1.93;1.50;;;21.30;1.00;;;;;;5056229;28;20184;-80
2022/07/26 06:44:28;;;;;;;2.40;1.27;;;21.30;1.00;;;;;;5056759;28;20420;-80
2022/07/26 06:46:59;;;;;;;3.07;1.30;;;21.20;1.00;;;;;;5056914;28;20162;-79
2022/07/26 06:50:04;;;;;;;2.30;1.50;;;21.20;1.00;;;;;;5055444;28;20439;-83
2022/07/26 06:52:31;;;;;;;5.50;1.47;;;21.30;1.00;;;;;;5056021;28;20437;-80
2022/07/26 06:54:58;;;;;;;5.87;1.60;;;21.30;1.00;;;;;;5045200;28;20454;-80
2022/07/26 06:57:24;;;;;;;2.80;1.37;;;21.50;1.00;;;;;;5040172;28;20417;-78
2022/07/26 06:59:50;;;;;;;4.37;1.33;;;21.60;1.00;;;;;;5055695;28;20564;-78
2022/07/26 07:02:16;;;;;;;1.57;1.13;;;21.60;1.00;;;;;;5042377;28;20556;-79
2022/07/26 07:04:43;;;;;;;3.30;1.40;;;;;;;;;;5054400;28;20201;-79
2022/07/26 07:07:09;;;;;;;4.10;1.53;;;21.80;1.00;;;;;;5054439;28;20778;-78
2022/07/26 07:09:41;;;;;;;8.47;1.83;;;21.80;1.00;;;;;;5044640;28;20610;-80
2022/07/26 07:12:07;;;;;;;3.40;1.23;;;21.90;1.00;;;;;;5048997;28;20418;-79
2022/07/26 07:14:33;;;;;;;2.93;1.83;;;22.00;1.00;;;;;;5055500;28;20511;-78
2022/07/26 07:17:00;;;;;;;1.87;1.23;;;22.10;1.00;;;;;;5053884;28;20832;-85
2022/07/26 07:19:26;;;;;;;3.30;1.40;;;22.30;1.00;;;;;;5055534;28;20476;-85
2022/07/26 07:21:51;;;;;;;1.30;1.20;;;22.40;1.00;;;;;;5048808;28;20440;-84
2022/07/26 07:24:18;;;;;;;4.20;1.10;;;22.60;1.00;;;;;;5043402;28;20425;-85
2022/07/26 07:26:47;;;;;;;2.60;1.20;;;22.70;1.00;;;;;;5047817;28;20491;-84
2022/07/26 07:29:22;;;;;;;5.47;1.70;;;22.90;1.00;;;;;;5052838;28;20461;-80
2022/07/26 07:31:52;;;;;;;4.07;1.47;;;23.10;1.00;;;;;;5045489;28;20435;-80
2022/07/26 07:34:40;;;;;;;2.80;1.27;;;23.30;1.00;;;;;;5044710;28;20503;-80
2022/07/26 07:37:06;;;;;;;9.40;1.60;;;23.50;1.00;;;;;;5034846;28;20431;-80
2022/07/26 07:39:35;;;;;;;4.27;1.43;;;23.40;1.00;;;;;;5048272;28;20786;-81
2022/07/26 07:42:01;;;;;;;3.10;1.30;;;23.60;1.00;;;;;;5062627;28;20533;-80
2022/07/26 07:44:27;;;;;;;2.97;1.43;;;23.70;1.00;;;;;;5046336;28;20484;-81
2022/07/26 07:46:58;;;;;;;2.43;1.20;;;23.90;1.00;;;;;;5051978;28;20754;-81
2022/07/26 07:49:29;;;;;;;6.23;1.93;;;23.90;1.00;;;;;;5037105;28;20536;-81
2022/07/26 07:52:05;;;;;;;5.87;1.60;;;23.60;1.00;;;;;;5035715;28;20426;-81
2022/07/26 07:54:31;;;;;;;3.37;1.30;;;23.50;1.00;;;;;;5042200;28;20409;-80
2022/07/26 07:57:04;;;;;;;12.83;1.57;;;23.30;1.00;;;;;;5048081;28;20493;-81
2022/07/26 07:59:46;;;;;;;3.63;1.30;;;23.30;1.00;;;;;;5066535;28;20216;-81
2022/07/26 08:02:34;;;;;;;4.33;1.23;;;23.30;1.00;;;;;;5037509;28;20931;-81
2022/07/26 08:05:00;;;;;;;3.33;1.30;;;23.60;1.00;;;;;;5035505;28;20412;-81
2022/07/26 08:07:26;;;;;;;2.50;1.13;;;23.80;1.00;;;;;;5054194;28;20425;-81
2022/07/26 08:10:10;;;;;;;5.90;1.47;;;23.80;1.00;;;;;;5052444;28;20413;-81
2022/07/26 08:12:41;;;;;;;5.30;1.20;;;23.80;1.00;;;;;;5043477;28;20208;-81
2022/07/26 08:15:11;;;;;;;2.23;1.40;;;23.80;1.00;;;;;;5052512;28;20385;-82
2022/07/26 08:17:40;;;;;;;4.60;1.33;;;23.90;1.00;;;;;;5035065;28;20405;-82
2022/07/26 08:20:11;;;;;;;10.23;1.50;;;24.00;1.00;;;;;;5051979;28;20412;-81
2022/07/26 08:22:41;;;;;;;3.63;1.30;;;24.10;1.00;;;;;;5046331;28;20465;-82
2022/07/26 08:25:11;;;;;;;3.30;1.20;;;24.30;1.00;;;;;;5039911;28;20507;-81
2022/07/26 08:28:04;;;;;;;2.60;1.20;;;24.50;1.00;;;;;;5054775;28;20444;-81
2022/07/26 08:30:32;;;;;;;3.47;1.77;;;24.70;1.00;;;;;;5040786;28;20382;-82
2022/07/26 08:33:10;;;;;;;2.70;1.60;;;24.70;1.00;;;;;;5050911;28;20416;-81
2022/07/26 08:35:40;;;;;;;2.03;1.33;;;24.40;1.00;;;;;;5035125;28;20508;-81
2022/07/26 08:38:06;;;;;;;3.40;1.30;;;24.20;1.00;;;;;;5039047;28;20970;-81
2022/07/26 08:40:40;;;;;;;6.73;1.67;;;24.50;1.00;;;;;;5038426;28;20418;-81
2022/07/26 08:43:40;;;;;;;3.03;1.43;;;24.90;1.00;;;;;;5034688;28;20163;-81
2022/07/26 08:46:10;;;;;;;4.40;1.30;;;25.20;1.00;;;;;;5034444;28;20416;-82
2022/07/26 08:48:40;;;;;;;3.03;1.40;;;25.70;1.00;;;;;;5034318;28;20464;-81
2022/07/26 08:51:12;;;;;;;5.63;2.20;;;26.00;1.00;;;;;;5039981;28;20426;-82
2022/07/26 08:53:38;;;;;;;6.87;1.30;;;26.30;1.00;;;;;;5054249;28;20447;-81
2022/07/26 08:56:05;;;;;;;4.83;1.27;;;26.60;1.00;;;;;;5054526;28;20426;-79
2022/07/26 08:58:42;;;;;;;6.80;1.50;;;26.80;1.00;;;;;;5054392;28;20396;-79
2022/07/26 09:01:13;;;;;;;3.83;1.27;;;27.00;1.00;;;;;;5048436;28;20511;-80
2022/07/26 09:03:40;;;;;;;1.30;1.03;;;27.10;1.00;;;;;;5053684;28;20423;-79
2022/07/26 09:06:24;;;;;;;3.53;0.97;;;26.90;1.00;;;;;;5037343;28;20424;-79
2022/07/26 09:08:52;;;;;;;1.10;1.00;;;26.70;1.00;;;;;;5054320;28;20516;-82
2022/07/26 09:11:34;;;;;;;1.97;1.10;;;26.80;1.00;;;;;;5045499;28;20402;-82
2022/07/26 09:14:05;;;;;;;3.73;1.33;;;26.80;1.00;;;;;;5043204;28;20433;-81
2022/07/26 09:16:31;;;;;;;2.53;1.00;;;27.10;1.00;;;;;;5048245;28;22030;-82
2022/07/26 09:19:23;;;;;;;2.83;1.20;;;27.20;1.00;;;;;;5037690;28;20850;-82
2022/07/26 09:22:10;;;;;;;3.43;1.13;;;27.20;1.00;;;;;;5038251;28;20483;-82
2022/07/26 09:24:45;;;;;;;1.63;1.10;;;27.10;1.00;;;;;;5045111;28;20511;-82
2022/07/26 09:27:35;;;;;;;1.20;1.00;;;26.90;1.00;;;;;;5034470;28;20425;-82
2022/07/26 09:30:06;;;;;;;3.63;1.20;;;26.80;1.00;;;;;;5038222;28;20507;-82
2022/07/26 09:32:58;;;;;;;1.60;0.97;;;26.90;1.00;;;;;;5034002;28;20408;-82
2022/07/26 09:35:39;;;;;;;1.80;1.00;;;27.20;1.00;;;;;;5040991;28;20432;-82
2022/07/26 09:38:14;;;;;;;3.00;0.93;;;27.30;1.00;;;;;;5046591;28;20430;-82
2022/07/26 09:40:41;;;;;;;5.63;1.17;;;27.40;1.00;;;;;;5053731;28;20423;-81
2022/07/26 09:43:07;;;;;;;1.43;1.07;;;27.30;1.00;;;;;;5044611;28;20420;-82
2022/07/26 09:45:40;;;;;;;3.80;0.90;;;27.40;1.00;;;;;;5033784;28;20900;-83
2022/07/26 09:48:11;;;;;;;3.07;1.00;;;27.00;1.00;;;;;;5033879;28;20452;-82
2022/07/26 09:50:47;;;;;;;2.20;1.00;;;26.70;1.00;;;;;;5045989;28;20425;-82
2022/07/26 09:53:13;;;;;;;3.30;0.90;;;26.30;1.00;;;;;;5041336;28;20498;-82
2022/07/26 09:55:55;;;;;;;2.53;1.20;;;26.10;1.00;;;;;;5048162;28;20564;-82
2022/07/26 09:58:23;;;;;;;3.53;1.20;;;26.30;1.00;;;;;;5046346;28;20232;-81
2022/07/26 10:01:05;;;;;;;2.47;0.90;;;26.60;1.00;;;;;;5040733;28;20436;-82
2022/07/26 10:03:35;;;;;;;2.40;0.90;;;26.90;1.00;;;;;;5043148;28;20846;-82
2022/07/26 10:06:04;;;;;;;2.50;0.90;;;27.10;1.00;;;;;;5033762;28;20941;-82
2022/07/26 10:08:35;;;;;;;1.83;0.90;;;27.50;1.00;;;;;;5046678;28;20467;-82
2022/07/26 10:11:07;;;;;;;2.53;0.97;;;27.80;1.00;;;;;;5043301;28;20477;-81
2022/07/26 10:13:36;;;;;;;2.70;0.70;;;27.80;1.00;;;;;;5049466;28;20411;-82
2022/07/26 10:16:05;;;;;;;1.70;1.07;;;27.50;1.00;;;;;;5044093;28;20989;-81
2022/07/26 10:18:36;;;;;;;5.33;0.70;;;27.60;1.00;;;;;;5050396;28;20428;-83
2022/07/26 10:21:25;;;;;;;3.47;1.10;;;28.10;1.00;;;;;;5051745;28;20408;-82
2022/07/26 10:24:01;;;;;;;1.93;1.20;;;28.30;1.00;;;;;;5046304;28;20924;-83
2022/07/26 10:26:33;;;;;;;0.87;0.80;;;28.20;1.00;;;;;;5040361;28;20961;-82
2022/07/26 10:29:25;;;;;;;7.10;0.90;;;28.10;1.00;;;;;;5041214;28;21045;-82
2022/07/26 10:31:59;;;;;;;2.03;0.80;;;28.20;1.00;;;;;;5050455;28;20481;-82
2022/07/26 10:34:41;;;;;;;1.07;0.83;;;28.20;1.00;;;;;;5032860;28;20414;-82
2022/07/26 10:37:21;;;;;;;8.17;1.43;;;28.00;1.00;;;;;;5041521;28;20480;-78
2022/07/26 10:39:47;;;;;;;1.10;1.00;;;28.10;1.00;;;;;;5040998;28;20480;-78
2022/07/26 10:42:13;;;;;;;1.47;1.00;;;27.90;1.00;;;;;;5053045;28;20461;-79
2022/07/26 10:44:43;;;;;;;3.93;0.90;;;27.70;1.00;;;;;;5058272;28;20416;-78
2022/07/26 10:47:19;;;;;;;1.83;0.90;;;27.60;1.00;;;;;;5073060;28;20205;-78
2022/07/26 10:49:59;;;;;;;5.63;0.80;;;27.60;1.00;;;;;;5040936;28;20414;-78
2022/07/26 10:52:57;;;;;;;2.80;1.00;;;27.80;1.00;;;;;;5039891;28;20912;-79
2022/07/26 10:55:23;;;;;;;2.63;1.07;;;28.00;1.00;;;;;;5052834;28;20900;-78
2022/07/26 10:57:48;;;;;;;3.67;0.90;;;28.10;1.00;;;;;;5051257;28;20425;-78
2022/07/26 11:00:17;;;;;;;4.83;0.90;;;28.20;1.00;;;;;;5051586;28;20187;-78
2022/07/26 11:02:48;;;;;;;1.67;0.90;;;28.40;1.00;;;;;;5054496;28;20718;-78
2022/07/26 11:05:16;;;;;;;2.40;0.93;;;28.80;1.00;;;;;;5055508;28;20410;-78
2022/07/26 11:07:50;;;;;;;2.13;0.80;;;28.90;1.00;;;;;;5055516;28;20468;-78
2022/07/26 11:10:15;;;;;;;1.40;0.90;;;29.00;1.00;;;;;;5055542;28;20425;-78
2022/07/26 11:12:41;;;;;;;1.60;1.00;;;28.90;1.00;;;;;;5055335;28;20415;-78
2022/07/26 11:15:18;;;;;;;0.80;0.80;;;28.50;1.00;;;;;;5053572;28;20571;-76
2022/07/26 11:17:44;;;;;;;1.13;0.93;;;28.50;1.00;;;;;;5045712;28;20229;-77
2022/07/26 11:20:10;;;;;;;4.83;1.07;;;28.30;1.00;;;;;;5055602;28;20425;-77
2022/07/26 11:22:35;;;;;;;2.40;1.10;;;28.50;1.00;;;;;;5055285;28;20434;-77
2022/07/26 11:25:03;;;;;;;1.97;0.90;;;28.80;1.00;;;;;;5052790;28;20426;-77
2022/07/26 11:27:29;;;;;;;3.90;1.00;;;28.80;1.00;;;;;;5045663;28;20277;-77
2022/07/26 11:30:01;;;;;;;1.10;1.00;;;28.40;1.00;;;;;;5055369;28;20508;-76
2022/07/26 11:32:26;;;;;;;1.97;1.10;;;28.50;1.00;;;;;;5055016;28;20537;-76
2022/07/26 11:35:00;;;;;;;2.33;1.20;;;28.50;1.00;;;;;;5054822;28;20452;-76
2022/07/26 11:37:26;;;;;;;1.13;1.00;;;28.30;1.00;;;;;;5054869;28;20221;-76
2022/07/26 11:39:52;;;;;;;1.40;0.90;;;28.10;1.00;;;;;;5054861;28;20778;-76
2022/07/26 11:42:20;;;;;;;1.33;0.90;;;27.90;1.00;;;;;;5054939;28;20537;-76
2022/07/26 11:44:48;;;;;;;5.23;0.80;;;27.90;1.00;;;;;;5055358;28;20630;-79
2022/07/26 11:47:18;;;;;;;6.13;0.87;;;28.00;1.00;;;;;;5054770;28;20444;-78
2022/07/26 11:49:45;;;;;;;2.80;0.90;;;28.30;1.00;;;;;;5054868;28;20464;-78
2022/07/26 11:52:11;;;;;;;5.47;1.17;;;28.70;1.00;;;;;;5054674;28;20815;-78
2022/07/26 11:54:45;;;;;;;3.00;0.93;;;29.20;1.00;;;;;;5054861;28;20508;-78
2022/07/26 11:57:11;;;;;;;3.70;1.00;;;29.70;1.00;;;;;;5054478;28;20460;-78
2022/07/26 11:59:43;;;;;;;2.10;1.23;;;29.80;1.00;;;;;;5055061;28;20421;-76
2022/07/26 12:02:09;;;;;;;1.73;0.90;;;29.80;1.00;;;;;;5054390;28;20427;-76
2022/07/26 12:04:38;;;;;;;1.70;1.07;;;29.40;1.00;;;;;;5054658;28;20519;-76
2022/07/26 12:07:15;;;;;;;2.17;1.13;;;29.40;1.00;;;;;;5054382;28;20444;-77
2022/07/26 12:09:52;;;;;;;2.63;1.10;;;29.10;1.00;;;;;;5054328;28;20475;-76
2022/07/26 12:12:30;;;;;;;1.77;1.07;;;29.00;1.00;;;;;;5054057;28;20431;-76
2022/07/26 12:15:05;;;;;;;3.33;1.20;;;29.10;1.00;;;;;;5052736;28;20777;-78
2022/07/26 12:17:31;;;;;;;1.43;1.10;;;29.10;1.00;;;;;;5054045;28;20447;-79
2022/07/26 12:20:13;;;;;;;1.30;1.20;;;29.10;1.00;;;;;;5052382;28;20428;-79
2022/07/26 12:22:39;;;;;;;5.00;1.80;;;29.10;1.00;;;;;;5034349;28;20480;-78
2022/07/26 12:25:05;;;;;;;5.37;1.10;;;29.10;1.00;;;;;;5035784;28;20428;-78
2022/07/26 12:27:32;;;;;;;1.77;1.20;;;28.90;1.00;;;;;;5052335;28;20628;-78
2022/07/26 12:30:07;;;;;;;2.70;0.97;;;29.00;1.00;;;;;;5054808;28;20436;-78
2022/07/26 12:32:40;;;;;;;1.50;1.10;;;28.90;1.00;;;;;;5057243;28;20503;-78
2022/07/26 12:35:14;;;;;;;1.20;1.10;;;28.80;1.00;;;;;;5054853;28;20440;-78
2022/07/26 12:38:04;;;;;;;2.23;1.20;;;28.60;1.00;;;;;;5040768;28;20473;-78
2022/07/26 12:40:39;;;;;;;4.20;1.03;;;28.30;1.00;;;;;;5049883;28;20436;-78
2022/07/26 12:43:05;;;;;;;5.90;1.10;;;28.20;1.00;;;;;;5041629;28;20410;-79
2022/07/26 12:45:47;;;;;;;2.50;1.20;;;28.00;1.00;;;;;;5055144;28;20398;-76
2022/07/26 12:48:17;;;;;;;1.37;1.10;;;28.30;1.00;;;;;;5034794;28;20195;-76
2022/07/26 12:50:47;;;;;;;1.47;1.10;;;28.90;1.00;;;;;;5051048;28;20421;-76
2022/07/26 12:53:23;;;;;;;2.37;1.10;;;29.50;1.00;;;;;;5054881;28;20876;-76
2022/07/26 12:55:53;;;;;;;3.30;1.40;;;30.00;1.00;;;;;;5045982;28;20428;-76
2022/07/26 12:58:18;;;;;;;3.90;1.20;;;30.40;1.00;;;;;;5054486;28;20440;-76
2022/07/26 13:00:47;;;;;;;1.37;1.00;;;30.60;1.00;;;;;;5036811;28;20423;-78
2022/07/26 13:03:17;;;;;;;2.53;0.87;;;31.00;1.00;;;;;;5034147;28;20719;-78
2022/07/26 13:05:47;;;;;;;2.90;1.10;;;30.80;1.00;;;;;;5047797;28;20922;-79
2022/07/26 13:08:17;;;;;;;2.60;1.00;;;30.30;1.00;;;;;;5047185;28;20485;-78
2022/07/26 13:10:47;;;;;;;2.47;1.23;;;30.20;1.00;;;;;;5034682;28;20403;-78
2022/07/26 13:13:40;;;;;;;1.60;1.23;;;29.80;1.00;;;;;;5034529;28;20404;-78
2022/07/26 13:16:11;;;;;;;4.40;1.30;;;29.70;1.00;;;;;;5045928;28;20418;-78
2022/07/26 13:18:37;;;;;;;2.27;1.40;;;29.90;1.00;;;;;;5058154;28;20942;-78
2022/07/26 13:21:17;;;;;;;5.60;1.40;;;30.10;1.00;;;;;;5051863;28;20434;-78
2022/07/26 13:24:04;;;;;;;2.73;1.10;;;30.40;1.00;;;;;;5034470;28;20167;-78
2022/07/26 13:26:30;;;;;;;1.87;1.10;;;30.60;1.00;;;;;;5047444;28;20425;-79
2022/07/26 13:29:08;;;;;;;1.63;1.10;;;30.90;1.00;;;;;;5042629;28;20814;-78
2022/07/26 13:31:34;;;;;;;2.70;0.90;;;31.20;1.00;;;;;;5035837;28;20207;-79
2022/07/26 13:34:10;;;;;;;1.30;1.20;;;31.10;1.00;;;;;;5033811;28;20454;-78
2022/07/26 13:36:36;;;;;;;7.20;1.27;;;31.10;1.00;;;;;;5047701;28;20195;-81
2022/07/26 13:39:02;;;;;;;1.30;1.20;;;31.40;1.00;;;;;;5051792;28;20442;-79
2022/07/26 13:41:29;;;;;;;4.20;1.20;;;31.50;1.00;;;;;;5060209;28;20187;-78